createdAt,value
2023-03-26T00:01:05.726Z,6.80
2023-03-26T00:03:57.400Z,6.80
2023-03-26T00:06:49.003Z,6.80
2023-03-26T00:09:37.962Z,6.60
2023-03-26T00:12:26.281Z,6.50
2023-03-26T00:15:14.181Z,6.50
2023-03-26T00:18:03.148Z,6.50
2023-03-26T00:20:51.237Z,6.50
2023-03-26T00:23:41.514Z,6.40
2023-03-26T00:26:31.118Z,6.40
2023-03-26T00:29:19.072Z,6.30
2023-03-26T00:32:07.544Z,6.30
2023-03-26T00:34:56.541Z,6.30
2023-03-26T00:37:46.106Z,6.20
2023-03-26T00:40:36.738Z,6.20
2023-03-26T00:43:26.475Z,6.20
2023-03-26T00:46:15.140Z,6.10
2023-03-26T00:49:04.087Z,6.10
2023-03-26T00:51:52.113Z,6.10
2023-03-26T00:54:40.205Z,6.00
2023-03-26T00:57:35.728Z,6.10
2023-03-26T01:00:31.788Z,6.10
2023-03-26T01:03:27.840Z,6.20
2023-03-26T01:06:23.636Z,6.20
2023-03-26T01:09:17.039Z,6.20
2023-03-26T01:12:08.753Z,6.40
2023-03-26T01:15:01.205Z,6.40
2023-03-26T01:17:52.076Z,6.40
2023-03-26T01:20:46.616Z,6.40
2023-03-26T01:23:41.635Z,6.40
2023-03-26T01:26:48.877Z,6.60
2023-03-26T01:29:43.985Z,6.40
2023-03-26T01:32:57.783Z,6.50
2023-03-26T01:35:52.380Z,6.60
2023-03-26T01:38:48.231Z,6.60
2023-03-26T01:41:44.394Z,6.60
2023-03-26T01:44:36.704Z,6.70
2023-03-26T01:47:25.030Z,6.70
2023-03-26T01:50:13.620Z,6.70
2023-03-26T01:53:02.070Z,6.90
2023-03-26T01:56:02.009Z,6.80
2023-03-26T01:59:07.689Z,6.80
2023-03-26T02:02:02.098Z,6.80
2023-03-26T02:04:55.590Z,6.80
2023-03-26T02:07:47.938Z,6.80
2023-03-26T02:10:39.852Z,6.90
2023-03-26T02:13:28.223Z,6.90
2023-03-26T02:16:18.593Z,6.90
2023-03-26T02:19:15.865Z,6.90
2023-03-26T02:22:04.560Z,7.00
2023-03-26T02:24:52.515Z,7.00
2023-03-26T02:27:40.704Z,7.00
2023-03-26T02:30:29.859Z,7.00
2023-03-26T02:33:19.661Z,7.10
2023-03-26T02:36:08.844Z,7.00
2023-03-26T02:38:58.226Z,7.00
2023-03-26T02:41:46.169Z,7.00
2023-03-26T02:44:34.084Z,7.10
2023-03-26T02:47:22.157Z,7.10
2023-03-26T02:50:11.944Z,7.10
2023-03-26T02:53:00.759Z,7.10
2023-03-26T02:55:49.016Z,7.10
2023-03-26T02:58:37.006Z,7.20
2023-03-26T03:01:25.257Z,7.20
2023-03-26T03:04:14.046Z,7.20
2023-03-26T03:07:03.303Z,7.20
2023-03-26T03:09:51.303Z,7.20
2023-03-26T03:12:39.294Z,7.20
2023-03-26T03:15:27.379Z,7.20
2023-03-26T03:18:15.368Z,7.20
2023-03-26T03:21:03.448Z,7.20
2023-03-26T03:23:52.864Z,7.20
2023-03-26T03:26:41.266Z,7.20
2023-03-26T03:29:29.270Z,7.20
2023-03-26T03:32:17.185Z,7.30
2023-03-26T03:35:05.833Z,7.30
2023-03-26T03:37:53.751Z,7.30
2023-03-26T03:40:43.269Z,7.30
2023-03-26T03:43:32.625Z,7.30
2023-03-26T03:46:20.672Z,7.30
2023-03-26T03:49:08.697Z,7.40
2023-03-26T03:51:57.032Z,7.40
2023-03-26T03:54:45.068Z,7.40
2023-03-26T03:57:34.674Z,7.40
2023-03-26T04:00:23.116Z,7.40
2023-03-26T04:03:14.285Z,7.40
2023-03-26T04:06:02.848Z,7.40
2023-03-26T04:08:50.859Z,7.40
2023-03-26T04:11:38.795Z,7.40
2023-03-26T04:14:28.112Z,7.40
2023-03-26T04:17:16.082Z,7.40
2023-03-26T04:20:07.039Z,7.40
2023-03-26T04:22:55.022Z,7.40
2023-03-26T04:25:45.841Z,7.50
2023-03-26T04:28:42.250Z,7.50
2023-03-26T04:31:34.046Z,7.50
2023-03-26T04:34:25.137Z,7.50
2023-03-26T04:37:22.446Z,7.50
2023-03-26T04:40:14.798Z,7.40
2023-03-26T04:43:03.292Z,7.50
2023-03-26T04:45:52.356Z,7.40
2023-03-26T04:48:41.759Z,7.40
2023-03-26T04:51:38.250Z,7.50
2023-03-26T04:54:26.250Z,7.40
2023-03-26T04:57:18.458Z,7.50
2023-03-26T05:00:15.373Z,7.50
2023-03-26T05:03:03.428Z,7.40
2023-03-26T05:05:53.053Z,7.40
2023-03-26T05:08:41.882Z,7.40
2023-03-26T05:11:30.176Z,7.40
2023-03-26T05:14:18.328Z,7.40
2023-03-26T05:17:10.718Z,7.40
2023-03-26T05:19:58.742Z,7.40
2023-03-26T05:22:48.690Z,7.40
2023-03-26T05:25:36.768Z,7.40
2023-03-26T05:28:26.635Z,7.30
2023-03-26T05:31:15.530Z,7.30
2023-03-26T05:34:03.737Z,7.30
2023-03-26T05:36:51.811Z,7.30
2023-03-26T05:39:41.238Z,7.30
2023-03-26T05:42:29.244Z,7.30
2023-03-26T05:45:17.192Z,7.30
2023-03-26T05:48:05.562Z,7.30
2023-03-26T05:50:55.491Z,7.30
2023-03-26T05:53:44.227Z,7.40
2023-03-26T05:56:33.678Z,7.30
2023-03-26T05:59:22.018Z,7.40
2023-03-26T06:02:10.729Z,7.30
2023-03-26T06:04:58.749Z,7.30
2023-03-26T06:07:46.881Z,7.30
2023-03-26T06:10:34.883Z,7.40
2023-03-26T06:13:24.123Z,7.40
2023-03-26T06:16:27.013Z,7.40
2023-03-26T06:19:15.859Z,7.50
2023-03-26T06:22:04.042Z,7.50
2023-03-26T06:24:52.846Z,7.50
2023-03-26T06:27:40.899Z,7.50
2023-03-26T06:30:30.325Z,7.60
2023-03-26T06:33:18.343Z,7.60
2023-03-26T06:36:07.126Z,7.60
2023-03-26T06:38:55.426Z,7.70
2023-03-26T06:41:43.443Z,7.80
2023-03-26T06:44:31.472Z,7.80
2023-03-26T06:47:21.128Z,7.80
2023-03-26T06:50:11.500Z,7.90
2023-03-26T06:53:00.042Z,7.90
2023-03-26T06:55:48.069Z,7.90
2023-03-26T06:58:36.295Z,8.00
2023-03-26T07:01:24.786Z,8.00
2023-03-26T07:04:14.242Z,8.00
2023-03-26T07:07:02.270Z,8.00
2023-03-26T07:09:50.482Z,8.00
2023-03-26T07:12:38.670Z,8.00
2023-03-26T07:15:28.406Z,8.00
2023-03-26T07:18:17.465Z,8.00
2023-03-26T07:21:08.242Z,8.00
2023-03-26T07:23:56.813Z,8.10
2023-03-26T07:26:53.132Z,8.10
2023-03-26T07:29:47.294Z,8.10
2023-03-26T07:32:43.337Z,8.20
2023-03-26T07:35:37.951Z,8.10
2023-03-26T07:38:37.817Z,8.20
2023-03-26T07:41:32.459Z,8.20
2023-03-26T07:44:32.268Z,8.20
2023-03-26T07:47:28.273Z,8.20
2023-03-26T07:50:18.923Z,8.20
2023-03-26T07:53:07.749Z,8.30
2023-03-26T07:56:03.709Z,8.30
2023-03-26T07:59:07.716Z,8.20
2023-03-26T08:02:11.577Z,8.30
2023-03-26T08:05:11.004Z,8.30
2023-03-26T08:08:09.340Z,8.30
2023-03-26T08:11:10.465Z,8.30
2023-03-26T08:14:07.660Z,8.30
2023-03-26T08:17:02.753Z,8.40
2023-03-26T08:20:07.720Z,8.40
2023-03-26T08:23:02.082Z,8.40
2023-03-26T08:25:59.297Z,8.40
2023-03-26T08:28:59.667Z,8.50
2023-03-26T08:31:49.854Z,8.50
2023-03-26T08:34:38.160Z,8.50
2023-03-26T08:37:27.364Z,8.60
2023-03-26T08:40:20.368Z,8.60
2023-03-26T08:43:27.256Z,8.70
2023-03-26T08:46:35.944Z,8.70
2023-03-26T08:49:46.035Z,8.70
2023-03-26T08:52:55.528Z,8.70
2023-03-26T08:55:53.715Z,8.80
2023-03-26T08:59:13.256Z,8.80
2023-03-26T09:02:43.267Z,8.80
2023-03-26T09:06:06.224Z,8.80
2023-03-26T09:09:41.009Z,8.80
2023-03-26T09:13:02.565Z,8.80
2023-03-26T09:16:28.754Z,8.90
2023-03-26T09:19:46.580Z,8.90
2023-03-26T09:23:09.735Z,8.90
2023-03-26T09:26:28.190Z,9.00
2023-03-26T09:29:47.166Z,9.00
2023-03-26T09:33:17.452Z,9.00
2023-03-26T09:36:23.584Z,9.00
2023-03-26T09:39:23.943Z,9.00
2023-03-26T09:42:19.244Z,9.60
2023-03-26T09:45:32.131Z,9.40
2023-03-26T09:48:45.853Z,9.30
2023-03-26T09:51:53.499Z,9.20
2023-03-26T09:55:00.350Z,9.20
2023-03-26T09:58:22.757Z,9.20
2023-03-26T10:01:15.555Z,9.20
2023-03-26T10:04:38.000Z,9.20
2023-03-26T10:07:48.918Z,9.20
2023-03-26T10:10:48.958Z,9.20
2023-03-26T10:13:50.921Z,9.20
2023-03-26T10:16:51.907Z,9.20
2023-03-26T10:19:52.092Z,9.20
2023-03-26T10:22:50.238Z,9.20
2023-03-26T10:26:04.334Z,9.20
2023-03-26T10:29:13.558Z,9.30
2023-03-26T10:32:17.936Z,9.30
2023-03-26T10:35:19.838Z,9.30
2023-03-26T10:38:17.157Z,9.20
2023-03-26T10:41:14.501Z,9.20
2023-03-26T10:44:43.556Z,9.20
2023-03-26T10:47:48.646Z,9.20
2023-03-26T10:51:00.672Z,9.20
2023-03-26T10:53:55.299Z,9.10
2023-03-26T10:56:47.490Z,9.00
2023-03-26T10:59:35.485Z,9.00
2023-03-26T11:02:30.997Z,8.90
2023-03-26T11:05:33.276Z,8.90
2023-03-26T11:08:31.818Z,8.90
2023-03-26T11:11:27.736Z,8.90
2023-03-26T11:14:33.813Z,8.80
2023-03-26T11:17:40.734Z,8.80
2023-03-26T11:20:38.664Z,8.70
2023-03-26T11:23:35.757Z,8.70
2023-03-26T11:26:33.188Z,8.60
2023-03-26T11:29:40.261Z,8.70
2023-03-26T11:32:37.699Z,8.60
2023-03-26T11:35:40.157Z,8.60
2023-03-26T11:38:37.403Z,8.60
2023-03-26T11:41:28.206Z,8.60
2023-03-26T11:44:21.564Z,8.60
2023-03-26T11:47:15.076Z,8.50
2023-03-26T11:50:04.392Z,8.50
2023-03-26T11:52:52.663Z,8.60
2023-03-26T11:55:45.294Z,8.60
2023-03-26T11:58:38.324Z,8.60
2023-03-26T12:01:30.470Z,8.60
2023-03-26T12:04:26.394Z,8.60
2023-03-26T12:07:18.453Z,8.60
2023-03-26T12:10:18.658Z,8.50
2023-03-26T12:13:28.652Z,8.60
2023-03-26T12:16:19.890Z,8.60
2023-03-26T12:19:22.272Z,8.60
2023-03-26T12:22:29.480Z,8.60
2023-03-26T12:25:20.350Z,8.70
2023-03-26T12:28:19.750Z,8.70
2023-03-26T12:31:12.534Z,8.80
2023-03-26T12:34:14.427Z,8.70
2023-03-26T12:37:05.594Z,8.80
2023-03-26T12:40:14.303Z,8.80
2023-03-26T12:44:51.503Z,8.90
2023-03-26T12:47:57.089Z,8.90
2023-03-26T12:49:34.052Z,8.90
2023-03-26T12:52:38.302Z,8.90
2023-03-26T12:55:42.282Z,8.90
2023-03-26T12:58:47.881Z,9.00
2023-03-26T13:01:45.653Z,9.00
2023-03-26T13:05:05.036Z,9.00
2023-03-26T13:08:07.969Z,9.00
2023-03-26T13:11:05.155Z,9.00
2023-03-26T13:14:13.822Z,9.00
2023-03-26T13:17:06.370Z,9.00
2023-03-26T13:20:06.675Z,9.00
2023-03-26T13:23:03.478Z,9.00
2023-03-26T13:26:01.701Z,9.10
2023-03-26T13:28:58.574Z,9.10
2023-03-26T13:31:55.950Z,9.10
2023-03-26T13:34:58.143Z,9.20
2023-03-26T13:37:52.158Z,9.20
2023-03-26T13:40:50.779Z,9.10
2023-03-26T13:43:46.260Z,9.10
2023-03-26T13:46:39.413Z,9.10
2023-03-26T13:49:37.190Z,9.10
2023-03-26T13:52:31.337Z,9.10
2023-03-26T13:55:23.334Z,9.10
2023-03-26T13:58:21.884Z,9.20
2023-03-26T14:01:16.627Z,9.20
2023-03-26T14:04:17.753Z,9.20
2023-03-26T14:07:13.093Z,9.20
2023-03-26T14:10:06.180Z,9.30
2023-03-26T14:12:58.490Z,9.30
2023-03-26T14:15:51.193Z,9.30
2023-03-26T14:18:47.272Z,9.40
2023-03-26T14:21:47.246Z,9.40
2023-03-26T14:24:53.591Z,9.40
2023-03-26T14:28:09.349Z,9.40
2023-03-26T14:31:19.473Z,9.40
2023-03-26T14:34:38.413Z,9.40
2023-03-26T14:37:57.384Z,9.50
2023-03-26T14:40:59.171Z,9.50
2023-03-26T14:44:20.644Z,9.50
2023-03-26T14:47:21.615Z,9.50
2023-03-26T14:50:55.160Z,9.50
2023-03-26T14:53:47.495Z,9.60
2023-03-26T14:56:54.276Z,9.50
2023-03-26T15:00:22.829Z,9.60
2023-03-26T15:03:56.513Z,9.60
2023-03-26T15:07:18.803Z,9.50
2023-03-26T15:10:34.195Z,9.50
2023-03-26T15:14:16.480Z,9.40
2023-03-26T15:17:54.371Z,9.40
2023-03-26T15:21:43.156Z,9.40
2023-03-26T15:25:07.539Z,9.40
2023-03-26T15:28:13.164Z,9.30
2023-03-26T15:31:21.009Z,9.30
2023-03-26T15:34:44.939Z,9.30
2023-03-26T15:38:00.372Z,9.30
2023-03-26T15:41:16.576Z,9.30
2023-03-26T15:47:33.769Z,9.20
2023-03-26T15:50:32.077Z,9.10
2023-03-26T15:53:35.352Z,9.10
2023-03-26T15:56:49.064Z,9.10
2023-03-26T15:59:52.271Z,9.10
2023-03-26T16:02:50.469Z,9.00
2023-03-26T16:05:54.104Z,9.00
2023-03-26T16:08:54.741Z,9.00
2023-03-26T16:11:51.577Z,8.90
2023-03-26T16:14:47.858Z,8.90
2023-03-26T16:18:10.282Z,8.90
2023-03-26T16:21:37.936Z,8.90
2023-03-26T16:24:31.366Z,8.80
2023-03-26T16:27:32.481Z,8.80
2023-03-26T16:30:30.166Z,8.80
2023-03-26T16:33:21.277Z,8.80
2023-03-26T16:36:25.850Z,8.80
2023-03-26T16:39:22.014Z,8.70
2023-03-26T16:42:34.821Z,8.70
2023-03-26T16:45:30.766Z,8.70
2023-03-26T16:48:27.550Z,8.70
2023-03-26T16:51:24.011Z,8.60
2023-03-26T16:54:20.055Z,8.60
2023-03-26T16:57:19.257Z,8.50
2023-03-26T17:00:30.037Z,8.60
2023-03-26T17:03:28.504Z,8.50
2023-03-26T17:06:47.988Z,8.50
2023-03-26T17:09:51.616Z,8.50
2023-03-26T17:12:42.864Z,8.40
2023-03-26T17:15:41.486Z,8.40
2023-03-26T17:18:39.706Z,8.40
2023-03-26T17:21:46.226Z,8.40
2023-03-26T17:24:45.911Z,8.40
2023-03-26T17:27:44.156Z,8.20
2023-03-26T17:30:51.513Z,8.20
2023-03-26T17:33:41.089Z,8.20
2023-03-26T17:36:41.924Z,8.20
2023-03-26T17:40:12.184Z,8.30
2023-03-26T17:43:09.916Z,8.20
2023-03-26T17:46:02.899Z,8.20
2023-03-26T17:48:59.300Z,8.20
2023-03-26T17:51:53.114Z,8.20
2023-03-26T17:54:45.295Z,8.10
2023-03-26T17:57:41.980Z,8.00
2023-03-26T18:00:35.598Z,8.00
2023-03-26T18:03:31.101Z,7.90
2023-03-26T18:06:37.652Z,7.80
2023-03-26T18:09:45.848Z,7.70
2023-03-26T18:12:45.709Z,7.60
2023-03-26T18:15:50.242Z,7.60
2023-03-26T18:18:46.061Z,7.60
2023-03-26T18:21:37.282Z,7.50
2023-03-26T18:24:28.615Z,7.50
2023-03-26T18:27:19.082Z,7.50
2023-03-26T18:30:16.703Z,7.50
2023-03-26T18:33:14.366Z,7.50
2023-03-26T18:36:03.648Z,7.40
2023-03-26T18:38:51.765Z,7.30
2023-03-26T18:41:41.965Z,7.30
2023-03-26T18:44:30.078Z,7.30
2023-03-26T18:47:18.740Z,7.30
2023-03-26T18:50:15.547Z,7.30
2023-03-26T18:53:06.339Z,7.30
2023-03-26T18:55:54.350Z,7.30
2023-03-26T18:58:43.870Z,7.30
2023-03-26T19:01:33.651Z,7.30
2023-03-26T19:04:21.779Z,7.30
2023-03-26T19:07:14.692Z,7.30
2023-03-26T19:10:02.756Z,7.20
2023-03-26T19:12:57.208Z,7.00
2023-03-26T19:15:47.998Z,6.90
2023-03-26T19:18:44.193Z,6.80
2023-03-26T19:21:33.999Z,6.70
2023-03-26T19:24:24.094Z,6.70
2023-03-26T19:27:13.094Z,6.70
2023-03-26T19:30:01.115Z,6.70
2023-03-26T19:32:54.512Z,6.60
2023-03-26T19:35:44.037Z,6.60
2023-03-26T19:38:42.731Z,6.60
2023-03-26T19:41:35.981Z,6.60
2023-03-26T19:44:28.516Z,6.50
2023-03-26T19:47:19.911Z,6.40
2023-03-26T19:50:24.829Z,6.50
2023-03-26T19:53:17.815Z,6.40
2023-03-26T19:56:13.470Z,6.30
2023-03-26T19:59:02.922Z,6.20
2023-03-26T20:01:50.914Z,6.00
2023-03-26T20:04:39.001Z,5.70
2023-03-26T20:07:35.949Z,5.70
2023-03-26T20:10:24.343Z,5.70
2023-03-26T20:13:17.216Z,5.70
2023-03-26T20:16:12.617Z,5.60
2023-03-26T20:19:02.327Z,5.50
2023-03-26T20:21:52.730Z,5.50
2023-03-26T20:24:41.319Z,5.50
2023-03-26T20:27:29.975Z,5.50
2023-03-26T20:30:27.451Z,5.50
2023-03-26T20:33:27.109Z,5.50
2023-03-26T20:36:34.287Z,5.50
2023-03-26T20:39:24.126Z,5.50
2023-03-26T20:42:15.453Z,5.50
2023-03-26T20:45:04.514Z,5.50
2023-03-26T20:47:53.177Z,5.50
2023-03-26T20:50:50.374Z,5.40
2023-03-26T20:53:41.500Z,5.30
2023-03-26T20:56:29.463Z,5.50
2023-03-26T20:59:21.632Z,5.30
2023-03-26T21:02:12.112Z,5.20
2023-03-26T21:05:00.138Z,5.00
2023-03-26T21:07:49.938Z,4.90
2023-03-26T21:10:38.432Z,4.80
2023-03-26T21:13:36.600Z,4.70
2023-03-26T21:16:25.115Z,4.70
2023-03-26T21:19:13.879Z,4.60
2023-03-26T21:22:13.677Z,4.50
2023-03-26T21:25:17.036Z,4.40
2023-03-26T21:28:24.044Z,4.40
2023-03-26T21:31:18.378Z,4.30
2023-03-26T21:34:08.265Z,4.30
2023-03-26T21:36:56.854Z,4.20
2023-03-26T21:39:45.584Z,4.20
2023-03-26T21:42:35.709Z,4.30
2023-03-26T21:45:24.373Z,4.30
2023-03-26T21:48:13.357Z,4.20
2023-03-26T21:51:04.913Z,4.30
2023-03-26T21:53:53.687Z,4.30
2023-03-26T21:56:46.544Z,4.30
2023-03-26T21:59:44.723Z,4.40
2023-03-26T22:02:41.190Z,4.30
2023-03-26T22:05:37.850Z,4.30
2023-03-26T22:08:30.952Z,4.20
2023-03-26T22:11:18.960Z,4.10
2023-03-26T22:14:06.938Z,4.00
2023-03-26T22:16:56.223Z,3.90
2023-03-26T22:19:44.246Z,3.80
2023-03-26T22:22:32.190Z,3.70
2023-03-26T22:25:21.644Z,3.70
2023-03-26T22:28:09.727Z,3.50
2023-03-26T22:30:58.274Z,3.50
2023-03-26T22:33:48.338Z,3.40
2023-03-26T22:36:38.392Z,3.30
2023-03-26T22:39:28.843Z,3.30
2023-03-26T22:42:16.766Z,3.20
2023-03-26T22:45:05.250Z,3.10
2023-03-26T22:47:53.635Z,3.10
2023-03-26T22:51:00.964Z,3.00
2023-03-26T22:53:49.040Z,2.90
2023-03-26T22:56:37.266Z,2.90
2023-03-26T22:59:25.520Z,2.90
2023-03-26T23:02:13.628Z,2.90
2023-03-26T23:05:01.681Z,2.90
2023-03-26T23:07:51.888Z,2.90
2023-03-26T23:10:43.971Z,2.70
2023-03-26T23:13:31.982Z,2.60
2023-03-26T23:16:21.661Z,2.60
2023-03-26T23:19:09.752Z,2.60
2023-03-26T23:21:57.869Z,2.60
2023-03-26T23:24:47.104Z,2.60
2023-03-26T23:27:35.608Z,2.50
2023-03-26T23:30:24.191Z,2.50
2023-03-26T23:33:12.663Z,2.40
2023-03-26T23:36:01.059Z,2.40
2023-03-26T23:38:49.811Z,2.40
2023-03-26T23:41:39.142Z,2.40
2023-03-26T23:44:29.404Z,2.40
2023-03-26T23:47:17.299Z,2.30
2023-03-26T23:50:06.665Z,2.30
2023-03-26T23:52:54.650Z,2.30
2023-03-26T23:55:42.565Z,2.30
2023-03-26T23:58:32.479Z,2.30
